createdAt,value
2022-08-25T00:00:50.834Z,100481.28
2022-08-25T00:03:58.311Z,100484.53
2022-08-25T00:07:07.853Z,100485.94
2022-08-25T00:10:14.650Z,100485.94
2022-08-25T00:16:38.232Z,100477.87
2022-08-25T00:19:46.072Z,100476.03
2022-08-25T00:22:54.614Z,100462.62
2022-08-25T00:26:01.713Z,100460.66
2022-08-25T00:29:09.512Z,100458.19
2022-08-25T00:32:17.193Z,100457.97
2022-08-25T00:38:40.492Z,100461.47
2022-08-25T00:41:47.770Z,100465.19
2022-08-25T00:44:56.422Z,100451.22
2022-08-25T00:48:04.396Z,100451.91
2022-08-25T00:51:14.033Z,100459.59
2022-08-25T00:54:39.631Z,100449.44
2022-08-25T00:57:49.851Z,100448.25
2022-08-25T01:00:59.991Z,100444.97
2022-08-25T01:04:07.432Z,100451.69
2022-08-25T01:07:17.922Z,100451.56
2022-08-25T01:10:26.271Z,100462.16
2022-08-25T01:13:44.251Z,100456.66
2022-08-25T01:16:53.921Z,100462.72
2022-08-25T01:20:02.273Z,100469.34
2022-08-25T01:23:09.449Z,100471.19
2022-08-25T01:26:30.055Z,100469.56
2022-08-25T01:29:39.829Z,100470.38
2022-08-25T01:32:47.555Z,100467.34
2022-08-25T01:35:54.555Z,100468.63
2022-08-25T01:39:02.391Z,100461.00
2022-08-25T01:42:32.090Z,100467.19
2022-08-25T01:45:41.451Z,100463.25
2022-08-25T01:48:48.832Z,100461.75
2022-08-25T01:52:24.251Z,100462.12
2022-08-25T01:55:31.930Z,100465.84
2022-08-25T01:58:41.331Z,100450.84
2022-08-25T02:01:51.145Z,100454.91
2022-08-25T02:05:09.311Z,100452.59
2022-08-25T02:08:16.550Z,100450.63
2022-08-25T02:11:26.071Z,100445.62
2022-08-25T02:14:33.350Z,100444.13
2022-08-25T02:17:40.792Z,100444.47
2022-08-25T02:20:48.710Z,100447.97
2022-08-25T02:23:55.950Z,100444.84
2022-08-25T02:27:03.670Z,100444.59
2022-08-25T02:30:11.670Z,100444.94
2022-08-25T02:33:17.699Z,100457.19
2022-08-25T02:36:35.654Z,100448.56
2022-08-25T02:39:44.196Z,100449.38
2022-08-25T02:42:52.715Z,100456.25
2022-08-25T02:45:59.964Z,100453.06
2022-08-25T02:49:09.376Z,100456.34
2022-08-25T02:52:17.291Z,100444.00
2022-08-25T02:55:25.291Z,100437.47
2022-08-25T02:58:32.438Z,100447.50
2022-08-25T03:01:39.687Z,100453.44
2022-08-25T03:04:47.581Z,100451.81
2022-08-25T03:07:54.990Z,100448.53
2022-08-25T03:11:03.036Z,100441.69
2022-08-25T03:14:12.633Z,100438.66
2022-08-25T03:17:19.872Z,100440.87
2022-08-25T03:20:28.251Z,100444.13
2022-08-25T03:23:36.852Z,100442.72
2022-08-25T03:26:56.632Z,100431.56
2022-08-25T03:30:05.551Z,100432.16
2022-08-25T03:33:13.131Z,100441.22
2022-08-25T03:36:20.651Z,100442.62
2022-08-25T03:39:29.069Z,100438.09
2022-08-25T03:42:36.790Z,100444.94
2022-08-25T03:45:46.344Z,100442.41
2022-08-25T03:48:55.952Z,100448.22
2022-08-25T03:52:04.013Z,100447.50
2022-08-25T03:55:13.833Z,100451.09
2022-08-25T03:58:20.342Z,100453.75
2022-08-25T04:01:27.972Z,100456.66
2022-08-25T04:04:35.846Z,100452.12
2022-08-25T04:07:49.793Z,100453.19
2022-08-25T04:10:57.153Z,100449.31
2022-08-25T04:14:04.751Z,100440.84
2022-08-25T04:17:12.591Z,100437.25
2022-08-25T04:20:20.211Z,100437.59
2022-08-25T04:23:26.754Z,100444.34
2022-08-25T04:26:49.933Z,100442.03
2022-08-25T04:30:17.351Z,100442.28
2022-08-25T04:33:24.736Z,100449.38
2022-08-25T04:36:31.912Z,100454.84
2022-08-25T04:39:39.024Z,100457.53
2022-08-25T04:42:45.711Z,100457.53
2022-08-25T04:46:02.920Z,100457.87
2022-08-25T04:49:11.045Z,100453.59
2022-08-25T04:52:17.974Z,100450.91
2022-08-25T04:55:25.713Z,100455.44
2022-08-25T04:58:32.510Z,100456.63
2022-08-25T05:01:39.950Z,100462.94
2022-08-25T05:04:48.897Z,100463.53
2022-08-25T05:07:58.551Z,100460.34
2022-08-25T05:11:16.110Z,100458.34
2022-08-25T05:14:26.849Z,100449.16
2022-08-25T05:17:35.992Z,100448.47
2022-08-25T05:20:44.673Z,100445.25
2022-08-25T05:23:53.093Z,100442.81
2022-08-25T05:27:01.594Z,100448.06
2022-08-25T05:30:09.472Z,100446.31
2022-08-25T05:33:18.502Z,100449.94
2022-08-25T05:36:27.953Z,100443.66
2022-08-25T05:39:37.272Z,100457.16
2022-08-25T05:42:53.289Z,100464.25
2022-08-25T05:46:03.872Z,100462.16
2022-08-25T05:49:11.333Z,100460.41
2022-08-25T05:52:25.352Z,100460.19
2022-08-25T05:55:33.256Z,100455.88
2022-08-25T05:58:42.232Z,100459.94
2022-08-25T06:02:08.814Z,100458.09
2022-08-25T06:05:25.752Z,100461.00
2022-08-25T06:08:35.632Z,100463.34
2022-08-25T06:11:43.614Z,100462.78
2022-08-25T06:14:51.673Z,100471.16
2022-08-25T06:18:01.053Z,100472.91
2022-08-25T06:21:16.894Z,100480.56
2022-08-25T06:24:24.835Z,100478.69
2022-08-25T06:27:32.061Z,100481.13
2022-08-25T06:30:40.568Z,100480.91
2022-08-25T06:33:47.198Z,100482.16
2022-08-25T06:36:55.671Z,100482.69
2022-08-25T06:40:03.622Z,100493.97
2022-08-25T06:43:12.154Z,100496.88
2022-08-25T06:46:35.628Z,100487.19
2022-08-25T06:49:46.555Z,100497.81
2022-08-25T06:52:54.792Z,100490.22
2022-08-25T06:56:06.766Z,100497.34
2022-08-25T06:59:14.169Z,100487.09
2022-08-25T07:02:26.443Z,100484.50
2022-08-25T07:05:43.564Z,100482.66
2022-08-25T07:08:53.991Z,100483.12
2022-08-25T07:12:02.235Z,100479.06
2022-08-25T07:15:19.841Z,100483.25
2022-08-25T07:18:32.274Z,100487.66
2022-08-25T07:21:42.473Z,100482.06
2022-08-25T07:24:53.125Z,100486.06
2022-08-25T07:27:59.953Z,100483.16
2022-08-25T07:31:14.868Z,100484.94
2022-08-25T07:34:42.616Z,100496.12
2022-08-25T07:37:53.726Z,100487.22
2022-08-25T07:41:05.100Z,100490.31
2022-08-25T07:44:12.261Z,100500.16
2022-08-25T07:47:18.506Z,100502.13
2022-08-25T07:50:37.733Z,100495.53
2022-08-25T07:53:46.582Z,100497.41
2022-08-25T07:56:53.894Z,100499.03
2022-08-25T08:00:09.716Z,100500.84
2022-08-25T08:03:35.306Z,100504.09
2022-08-25T08:06:48.793Z,100502.94
2022-08-25T08:13:18.080Z,100502.94
2022-08-25T08:16:33.481Z,100511.87
2022-08-25T08:19:44.907Z,100511.00
2022-08-25T08:22:54.056Z,100514.31
2022-08-25T08:26:03.375Z,100510.59
2022-08-25T08:29:13.492Z,100501.03
2022-08-25T08:32:25.167Z,100502.13
2022-08-25T08:35:42.779Z,100498.84
2022-08-25T08:38:51.852Z,100498.37
2022-08-25T08:42:19.018Z,100499.31
2022-08-25T08:45:43.814Z,100501.53
2022-08-25T08:49:05.054Z,100502.75
2022-08-25T08:52:13.455Z,100501.03
2022-08-25T08:55:35.915Z,100505.37
2022-08-25T08:59:16.531Z,100492.94
2022-08-25T09:02:51.565Z,100485.91
2022-08-25T09:09:35.760Z,100493.91
2022-08-25T09:13:35.992Z,100487.41
2022-08-25T09:17:01.252Z,100479.72
2022-08-25T09:20:39.022Z,100480.34
2022-08-25T09:24:34.994Z,100471.72
2022-08-25T09:27:44.172Z,100479.84
2022-08-25T09:31:32.217Z,100477.69
2022-08-25T09:34:42.556Z,100477.09
2022-08-25T09:38:23.893Z,100470.34
2022-08-25T09:41:47.795Z,100470.75
2022-08-25T09:44:59.874Z,100454.66
2022-08-25T09:48:27.007Z,100463.00
2022-08-25T09:51:42.878Z,100452.50
2022-08-25T09:54:55.293Z,100451.63
2022-08-25T10:01:23.826Z,100444.19
2022-08-25T10:04:35.265Z,100438.59
2022-08-25T10:07:54.512Z,100436.25
2022-08-25T10:11:06.506Z,100430.84
2022-08-25T10:14:36.572Z,100429.97
2022-08-25T10:17:45.010Z,100427.66
2022-08-25T10:21:22.033Z,100420.84
2022-08-25T10:24:29.259Z,100422.50
2022-08-25T10:28:11.153Z,100417.31
2022-08-25T10:31:37.956Z,100407.72
2022-08-25T10:34:58.493Z,100406.09
2022-08-25T10:38:10.314Z,100399.94
2022-08-25T10:41:25.373Z,100397.81
2022-08-25T10:45:21.618Z,100393.16
2022-08-25T10:48:43.273Z,100394.00
2022-08-25T10:51:55.278Z,100390.78
2022-08-25T10:55:20.773Z,100389.63
2022-08-25T10:59:12.711Z,100384.44
2022-08-25T11:06:20.557Z,100384.62
2022-08-25T11:09:41.952Z,100381.69
2022-08-25T11:12:56.023Z,100379.06
2022-08-25T11:16:19.724Z,100367.28
2022-08-25T11:19:42.292Z,100368.50
2022-08-25T11:23:12.435Z,100371.06
2022-08-25T11:26:31.976Z,100370.41
2022-08-25T11:29:48.132Z,100369.44
2022-08-25T11:32:55.259Z,100360.97
2022-08-25T11:36:40.352Z,100361.50
2022-08-25T11:40:34.389Z,100360.16
2022-08-25T11:44:17.012Z,100349.53
2022-08-25T11:47:44.253Z,100349.19
2022-08-25T11:51:09.668Z,100344.66
2022-08-25T11:54:41.752Z,100347.69
2022-08-25T11:57:53.896Z,100346.88
2022-08-25T12:01:03.069Z,100340.50
2022-08-25T12:04:17.739Z,100340.84
2022-08-25T12:07:42.791Z,100339.00
2022-08-25T12:11:06.087Z,100335.63
2022-08-25T12:14:28.120Z,100334.94
2022-08-25T12:17:43.234Z,100328.84
2022-08-25T12:20:58.097Z,100330.59
2022-08-25T12:24:06.789Z,100323.28
2022-08-25T12:27:34.011Z,100317.09
2022-08-25T12:31:00.643Z,100318.44
2022-08-25T12:34:14.483Z,100319.34
2022-08-25T12:37:27.431Z,100305.66
2022-08-25T12:40:48.556Z,100299.03
2022-08-25T12:44:36.425Z,100290.63
2022-08-25T12:47:50.593Z,100293.16
2022-08-25T12:51:35.559Z,100288.19
2022-08-25T12:55:04.995Z,100286.84
2022-08-25T12:58:16.853Z,100280.34
2022-08-25T13:05:55.093Z,100276.50
2022-08-25T13:13:09.993Z,100270.59
2022-08-25T13:16:30.677Z,100268.00
2022-08-25T13:19:38.632Z,100271.88
2022-08-25T13:22:55.140Z,100270.56
2022-08-25T13:26:10.993Z,100269.91
2022-08-25T13:29:25.018Z,100265.69
2022-08-25T13:32:41.270Z,100268.56
2022-08-25T13:36:23.731Z,100265.94
2022-08-25T13:39:55.375Z,100265.00
2022-08-25T13:43:10.212Z,100259.25
2022-08-25T13:46:23.867Z,100254.41
2022-08-25T13:49:34.623Z,100248.25
2022-08-25T13:52:41.654Z,100251.25
2022-08-25T13:55:57.322Z,100251.69
2022-08-25T13:59:07.714Z,100245.03
2022-08-25T14:02:50.154Z,100254.81
2022-08-25T14:06:14.273Z,100240.53
2022-08-25T14:09:28.274Z,100246.75
2022-08-25T14:12:51.314Z,100245.31
2022-08-25T14:16:00.005Z,100238.41
2022-08-25T14:19:08.655Z,100231.00
2022-08-25T14:22:16.381Z,100226.53
2022-08-25T14:25:24.254Z,100223.81
2022-08-25T14:28:34.572Z,100220.84
2022-08-25T14:31:44.465Z,100218.72
2022-08-25T14:34:50.470Z,100210.03
2022-08-25T14:38:00.963Z,100212.00
2022-08-25T14:44:24.994Z,100212.28
2022-08-25T14:47:38.252Z,100215.72
2022-08-25T14:50:47.879Z,100217.47
2022-08-25T14:54:10.201Z,100210.03
2022-08-25T14:57:21.515Z,100211.31
2022-08-25T15:00:32.585Z,100211.53
2022-08-25T15:03:42.232Z,100203.91
2022-08-25T15:07:30.749Z,100207.41
2022-08-25T15:10:43.410Z,100211.25
2022-08-25T15:13:53.474Z,100207.13
2022-08-25T15:17:05.396Z,100211.88
2022-08-25T15:20:15.500Z,100211.50
2022-08-25T15:23:24.115Z,100199.44
2022-08-25T15:26:32.974Z,100200.94
2022-08-25T15:29:42.334Z,100195.44
2022-08-25T15:32:51.995Z,100193.75
2022-08-25T15:36:05.995Z,100196.59
2022-08-25T15:39:15.614Z,100189.37
2022-08-25T15:42:28.955Z,100190.69
2022-08-25T15:45:38.133Z,100183.16
2022-08-25T15:48:47.368Z,100182.38
2022-08-25T15:51:55.694Z,100184.50
2022-08-25T15:55:05.114Z,100179.28
2022-08-25T15:58:13.333Z,100177.94
2022-08-25T16:01:27.263Z,100167.50
2022-08-25T16:04:39.575Z,100175.13
2022-08-25T16:07:51.650Z,100174.19
2022-08-25T16:11:00.934Z,100168.03
2022-08-25T16:14:11.475Z,100163.78
2022-08-25T16:17:21.512Z,100158.25
2022-08-25T16:20:32.816Z,100153.00
2022-08-25T16:23:41.385Z,100162.37
2022-08-25T16:26:52.555Z,100169.81
2022-08-25T16:30:05.012Z,100171.56
2022-08-25T16:33:16.010Z,100153.47
2022-08-25T16:36:27.321Z,100148.69
2022-08-25T16:39:37.293Z,100147.28
2022-08-25T16:42:48.513Z,100154.00
2022-08-25T16:46:10.972Z,100150.25
2022-08-25T16:49:19.578Z,100141.03
2022-08-25T16:52:47.951Z,100148.59
2022-08-25T16:56:11.526Z,100144.31
2022-08-25T16:59:21.829Z,100143.69
2022-08-25T17:02:32.171Z,100150.56
2022-08-25T17:05:49.795Z,100143.62
2022-08-25T17:09:01.433Z,100148.09
2022-08-25T17:12:09.072Z,100143.62
2022-08-25T17:15:24.573Z,100142.69
2022-08-25T17:18:33.535Z,100148.09
2022-08-25T17:21:45.895Z,100137.56
2022-08-25T17:24:59.449Z,100149.66
2022-08-25T17:31:27.376Z,100151.88
2022-08-25T17:34:38.472Z,100158.03
2022-08-25T17:37:49.930Z,100152.56
2022-08-25T17:41:00.593Z,100159.97
2022-08-25T17:44:09.013Z,100156.00
2022-08-25T17:47:17.290Z,100156.91
2022-08-25T17:50:29.418Z,100155.31
2022-08-25T17:53:37.671Z,100157.50
2022-08-25T17:56:46.119Z,100152.66
2022-08-25T17:59:55.313Z,100158.34
2022-08-25T18:03:06.732Z,100159.16
2022-08-25T18:06:16.080Z,100170.44
2022-08-25T18:09:24.756Z,100167.19
2022-08-25T18:12:33.433Z,100166.13
2022-08-25T18:15:42.526Z,100165.00
2022-08-25T18:18:50.194Z,100161.41
2022-08-25T18:22:00.269Z,100164.09
2022-08-25T18:25:12.231Z,100160.03
2022-08-25T18:28:20.719Z,100163.75
2022-08-25T18:31:29.368Z,100171.75
2022-08-25T18:34:39.313Z,100176.00
2022-08-25T18:41:16.191Z,100171.59
2022-08-25T18:44:24.210Z,100173.63
2022-08-25T18:47:32.430Z,100182.50
2022-08-25T18:54:00.848Z,100187.47
2022-08-25T18:57:09.809Z,100191.44
2022-08-25T19:00:20.223Z,100190.56
2022-08-25T19:03:27.850Z,100180.00
2022-08-25T19:06:39.370Z,100180.47
2022-08-25T19:09:58.229Z,100186.78
2022-08-25T19:13:08.524Z,100196.13
2022-08-25T19:16:22.075Z,100188.78
2022-08-25T19:19:30.931Z,100191.41
2022-08-25T19:22:41.906Z,100174.91
2022-08-25T19:25:50.089Z,100177.78
2022-08-25T19:28:57.750Z,100181.72
2022-08-25T19:32:05.051Z,100183.59
2022-08-25T19:35:19.860Z,100183.00
2022-08-25T19:38:33.720Z,100179.94
2022-08-25T19:41:45.790Z,100180.94
2022-08-25T19:44:57.331Z,100181.91
2022-08-25T19:48:05.011Z,100179.47
2022-08-25T19:51:12.810Z,100171.59
2022-08-25T19:54:24.610Z,100175.75
2022-08-25T19:57:42.428Z,100173.00
2022-08-25T20:00:54.299Z,100167.81
2022-08-25T20:04:02.110Z,100169.13
2022-08-25T20:07:12.364Z,100170.19
2022-08-25T20:10:21.234Z,100170.31
2022-08-25T20:13:28.617Z,100166.72
2022-08-25T20:16:36.042Z,100177.06
2022-08-25T20:19:44.849Z,100175.38
2022-08-25T20:22:52.732Z,100167.72
2022-08-25T20:26:04.889Z,100167.41
2022-08-25T20:29:17.649Z,100179.94
2022-08-25T20:32:26.010Z,100177.38
2022-08-25T20:35:40.192Z,100179.25
2022-08-25T20:38:47.938Z,100181.62
2022-08-25T20:41:55.985Z,100175.91
2022-08-25T20:45:09.902Z,100174.50
2022-08-25T20:48:18.052Z,100171.44
2022-08-25T20:54:51.601Z,100173.69
2022-08-25T20:58:00.269Z,100176.63
2022-08-25T21:01:41.319Z,100172.56
2022-08-25T21:04:48.974Z,100172.72
2022-08-25T21:07:58.837Z,100172.72
2022-08-25T21:11:06.109Z,100170.84
2022-08-25T21:14:14.168Z,100168.66
2022-08-25T21:17:23.089Z,100166.44
2022-08-25T21:20:30.722Z,100175.47
2022-08-25T21:23:37.750Z,100178.03
2022-08-25T21:26:49.210Z,100166.41
2022-08-25T21:29:56.168Z,100166.31
2022-08-25T21:33:03.920Z,100170.84
2022-08-25T21:36:13.430Z,100165.97
2022-08-25T21:39:22.591Z,100160.44
2022-08-25T21:42:30.450Z,100163.34
2022-08-25T21:45:46.785Z,100161.72
2022-08-25T21:48:54.449Z,100159.28
2022-08-25T21:52:05.191Z,100155.78
2022-08-25T21:55:16.295Z,100160.56
2022-08-25T21:58:25.134Z,100152.19
2022-08-25T22:01:32.750Z,100162.56
2022-08-25T22:04:41.413Z,100155.00
2022-08-25T22:07:50.453Z,100159.41
2022-08-25T22:11:01.112Z,100153.47
2022-08-25T22:14:08.552Z,100153.97
2022-08-25T22:17:21.182Z,100155.25
2022-08-25T22:20:33.391Z,100147.94
2022-08-25T22:23:44.595Z,100151.09
2022-08-25T22:26:53.509Z,100155.03
2022-08-25T22:30:03.832Z,100148.19
2022-08-25T22:33:15.211Z,100146.00
2022-08-25T22:36:33.893Z,100148.69
2022-08-25T22:39:40.690Z,100140.31
2022-08-25T22:42:48.872Z,100139.97
2022-08-25T22:46:04.727Z,100135.31
2022-08-25T22:49:15.632Z,100138.22
2022-08-25T22:52:22.929Z,100137.28
2022-08-25T22:55:46.731Z,100135.31
2022-08-25T22:58:54.171Z,100136.38
2022-08-25T23:02:02.952Z,100138.69
2022-08-25T23:05:11.269Z,100133.59
2022-08-25T23:08:38.931Z,100134.41
2022-08-25T23:11:46.709Z,100137.06
2022-08-25T23:14:54.792Z,100140.56
2022-08-25T23:18:02.032Z,100135.22
2022-08-25T23:21:34.998Z,100128.81
2022-08-25T23:24:50.331Z,100133.69
2022-08-25T23:27:58.229Z,100128.56
2022-08-25T23:31:11.421Z,100123.59
2022-08-25T23:34:20.109Z,100117.22
2022-08-25T23:37:27.313Z,100119.88
2022-08-25T23:40:36.671Z,100118.25
2022-08-25T23:43:43.932Z,100110.44
2022-08-25T23:46:51.993Z,100116.62
2022-08-25T23:49:59.069Z,100108.00
2022-08-25T23:53:08.039Z,100121.84
2022-08-25T23:56:15.429Z,100109.19
2022-08-25T23:59:25.531Z,100127.31
